sensor_id;sensor_type;location;lat;lon;timestamp;temperature;humidity
14119;DHT22;7138;49.246;9.100;2023-01-31T00:01:07;1.90;99.90
14119;DHT22;7138;49.246;9.100;2023-01-31T00:03:34;1.90;99.90
14119;DHT22;7138;49.246;9.100;2023-01-31T00:06:16;1.80;99.90
14119;DHT22;7138;49.246;9.100;2023-01-31T00:08:44;1.90;99.90
14119;DHT22;7138;49.246;9.100;2023-01-31T00:11:12;2.00;99.90
14119;DHT22;7138;49.246;9.100;2023-01-31T00:13:39;2.00;99.90
14119;DHT22;7138;49.246;9.100;2023-01-31T00:16:06;2.00;99.90
14119;DHT22;7138;49.246;9.100;2023-01-31T00:18:34;2.00;99.90
14119;DHT22;7138;49.246;9.100;2023-01-31T00:21:05;2.10;99.90
14119;DHT22;7138;49.246;9.100;2023-01-31T00:23:33;2.10;99.90
14119;DHT22;7138;49.246;9.100;2023-01-31T00:26:09;2.10;99.90
14119;DHT22;7138;49.246;9.100;2023-01-31T00:28:40;2.00;99.90
14119;DHT22;7138;49.246;9.100;2023-01-31T00:31:08;2.00;99.90
14119;DHT22;7138;49.246;9.100;2023-01-31T00:33:37;2.00;99.90
14119;DHT22;7138;49.246;9.100;2023-01-31T00:36:04;2.00;99.90
14119;DHT22;7138;49.246;9.100;2023-01-31T00:38:33;2.00;99.90
14119;DHT22;7138;49.246;9.100;2023-01-31T00:41:01;2.10;99.90
14119;DHT22;7138;49.246;9.100;2023-01-31T00:43:28;2.10;99.90
14119;DHT22;7138;49.246;9.100;2023-01-31T00:45:54;2.10;99.90
14119;DHT22;7138;49.246;9.100;2023-01-31T00:48:21;2.10;99.90
14119;DHT22;7138;49.246;9.100;2023-01-31T00:50:47;2.20;99.90
14119;DHT22;7138;49.246;9.100;2023-01-31T00:53:13;2.20;99.90
14119;DHT22;7138;49.246;9.100;2023-01-31T00:55:40;2.20;99.90
14119;DHT22;7138;49.246;9.100;2023-01-31T00:58:06;2.20;99.90
14119;DHT22;7138;49.246;9.100;2023-01-31T01:00:32;2.20;99.90
14119;DHT22;7138;49.246;9.100;2023-01-31T01:02:58;2.20;99.90
14119;DHT22;7138;49.246;9.100;2023-01-31T01:05:23;2.20;99.90
14119;DHT22;7138;49.246;9.100;2023-01-31T01:07:49;2.20;99.90
14119;DHT22;7138;49.246;9.100;2023-01-31T01:10:16;2.10;99.90
14119;DHT22;7138;49.246;9.100;2023-01-31T01:12:43;2.10;99.90
14119;DHT22;7138;49.246;9.100;2023-01-31T01:15:09;2.10;99.90
14119;DHT22;7138;49.246;9.100;2023-01-31T01:17:35;2.10;99.90
14119;DHT22;7138;49.246;9.100;2023-01-31T01:20:01;2.10;99.90
14119;DHT22;7138;49.246;9.100;2023-01-31T01:22:28;2.10;99.90
14119;DHT22;7138;49.246;9.100;2023-01-31T01:24:54;2.10;99.90
14119;DHT22;7138;49.246;9.100;2023-01-31T01:27:20;2.10;99.90
14119;DHT22;7138;49.246;9.100;2023-01-31T01:29:48;2.10;99.90
14119;DHT22;7138;49.246;9.100;2023-01-31T01:32:13;2.10;99.90
14119;DHT22;7138;49.246;9.100;2023-01-31T01:34:39;2.10;99.90
14119;DHT22;7138;49.246;9.100;2023-01-31T01:37:06;2.20;99.90
14119;DHT22;7138;49.246;9.100;2023-01-31T01:39:36;2.20;99.90
14119;DHT22;7138;49.246;9.100;2023-01-31T01:42:03;2.20;99.90
14119;DHT22;7138;49.246;9.100;2023-01-31T01:44:48;2.20;99.90
14119;DHT22;7138;49.246;9.100;2023-01-31T01:47:25;2.20;99.90
14119;DHT22;7138;49.246;9.100;2023-01-31T01:50:03;2.20;99.90
14119;DHT22;7138;49.246;9.100;2023-01-31T01:52:36;2.20;99.90
14119;DHT22;7138;49.246;9.100;2023-01-31T01:55:09;2.10;99.90
14119;DHT22;7138;49.246;9.100;2023-01-31T01:57:43;2.20;99.90
14119;DHT22;7138;49.246;9.100;2023-01-31T02:00:16;2.10;99.90
14119;DHT22;7138;49.246;9.100;2023-01-31T02:02:46;2.10;99.90
14119;DHT22;7138;49.246;9.100;2023-01-31T02:05:27;2.10;99.90
14119;DHT22;7138;49.246;9.100;2023-01-31T02:07:56;2.00;99.90
14119;DHT22;7138;49.246;9.100;2023-01-31T02:10:29;2.00;99.90
14119;DHT22;7138;49.246;9.100;2023-01-31T02:12:57;2.00;99.90
14119;DHT22;7138;49.246;9.100;2023-01-31T02:15:26;2.10;99.90
14119;DHT22;7138;49.246;9.100;2023-01-31T02:17:52;2.00;99.90
14119;DHT22;7138;49.246;9.100;2023-01-31T02:20:34;2.00;99.90
14119;DHT22;7138;49.246;9.100;2023-01-31T02:23:33;2.00;99.90
14119;DHT22;7138;49.246;9.100;2023-01-31T02:26:48;2.00;99.90
14119;DHT22;7138;49.246;9.100;2023-01-31T02:29:52;2.00;99.90
14119;DHT22;7138;49.246;9.100;2023-01-31T02:32:49;2.00;99.90
14119;DHT22;7138;49.246;9.100;2023-01-31T02:35:31;2.00;99.90
14119;DHT22;7138;49.246;9.100;2023-01-31T02:38:19;2.00;99.90
14119;DHT22;7138;49.246;9.100;2023-01-31T02:41:02;2.00;99.90
14119;DHT22;7138;49.246;9.100;2023-01-31T02:43:43;2.00;99.90
14119;DHT22;7138;49.246;9.100;2023-01-31T02:46:41;2.00;99.90
14119;DHT22;7138;49.246;9.100;2023-01-31T02:49:21;2.00;99.90
14119;DHT22;7138;49.246;9.100;2023-01-31T02:52:05;2.00;99.90
14119;DHT22;7138;49.246;9.100;2023-01-31T02:54:42;2.00;99.90
14119;DHT22;7138;49.246;9.100;2023-01-31T02:57:36;2.00;99.90
14119;DHT22;7138;49.246;9.100;2023-01-31T03:00:05;2.00;99.90
14119;DHT22;7138;49.246;9.100;2023-01-31T03:02:32;1.90;99.90
14119;DHT22;7138;49.246;9.100;2023-01-31T03:05:00;1.90;99.90
14119;DHT22;7138;49.246;9.100;2023-01-31T03:07:27;1.90;99.90
14119;DHT22;7138;49.246;9.100;2023-01-31T03:10:05;1.90;99.90
14119;DHT22;7138;49.246;9.100;2023-01-31T03:12:50;1.90;99.90
14119;DHT22;7138;49.246;9.100;2023-01-31T03:15:39;1.90;99.90
14119;DHT22;7138;49.246;9.100;2023-01-31T03:18:36;1.80;99.90
14119;DHT22;7138;49.246;9.100;2023-01-31T03:21:12;1.80;99.90
14119;DHT22;7138;49.246;9.100;2023-01-31T03:23:45;1.80;99.90
14119;DHT22;7138;49.246;9.100;2023-01-31T03:26:17;1.70;99.90
14119;DHT22;7138;49.246;9.100;2023-01-31T03:28:47;1.60;99.90
14119;DHT22;7138;49.246;9.100;2023-01-31T03:31:22;1.60;99.90
14119;DHT22;7138;49.246;9.100;2023-01-31T03:33:53;1.50;99.90
14119;DHT22;7138;49.246;9.100;2023-01-31T03:36:29;1.50;99.90
14119;DHT22;7138;49.246;9.100;2023-01-31T03:39:08;1.50;99.90
14119;DHT22;7138;49.246;9.100;2023-01-31T03:41:47;1.50;99.90
14119;DHT22;7138;49.246;9.100;2023-01-31T03:44:26;1.40;99.90
14119;DHT22;7138;49.246;9.100;2023-01-31T03:47:02;1.30;99.90
14119;DHT22;7138;49.246;9.100;2023-01-31T03:49:32;1.20;99.90
14119;DHT22;7138;49.246;9.100;2023-01-31T03:52:04;1.10;99.90
14119;DHT22;7138;49.246;9.100;2023-01-31T03:54:35;1.10;99.90
14119;DHT22;7138;49.246;9.100;2023-01-31T03:57:12;1.10;99.90
14119;DHT22;7138;49.246;9.100;2023-01-31T03:59:43;1.00;99.90
14119;DHT22;7138;49.246;9.100;2023-01-31T04:02:18;0.90;99.90
14119;DHT22;7138;49.246;9.100;2023-01-31T04:04:50;0.90;99.90
14119;DHT22;7138;49.246;9.100;2023-01-31T04:07:22;0.80;99.90
14119;DHT22;7138;49.246;9.100;2023-01-31T04:09:49;0.70;99.90
14119;DHT22;7138;49.246;9.100;2023-01-31T04:12:15;0.70;99.90
14119;DHT22;7138;49.246;9.100;2023-01-31T04:14:41;0.60;99.90
14119;DHT22;7138;49.246;9.100;2023-01-31T04:17:07;0.50;99.90
14119;DHT22;7138;49.246;9.100;2023-01-31T04:19:33;0.50;99.90
14119;DHT22;7138;49.246;9.100;2023-01-31T04:21:59;0.50;99.90
14119;DHT22;7138;49.246;9.100;2023-01-31T04:24:26;0.40;99.90
14119;DHT22;7138;49.246;9.100;2023-01-31T04:26:52;0.40;99.90
14119;DHT22;7138;49.246;9.100;2023-01-31T04:29:18;0.50;99.90
14119;DHT22;7138;49.246;9.100;2023-01-31T04:31:43;0.60;99.90
14119;DHT22;7138;49.246;9.100;2023-01-31T04:34:11;0.60;99.90
14119;DHT22;7138;49.246;9.100;2023-01-31T04:36:37;0.50;99.90
14119;DHT22;7138;49.246;9.100;2023-01-31T04:39:03;0.60;99.90
14119;DHT22;7138;49.246;9.100;2023-01-31T04:41:30;0.70;99.90
14119;DHT22;7138;49.246;9.100;2023-01-31T04:43:56;0.80;99.90
14119;DHT22;7138;49.246;9.100;2023-01-31T04:46:22;0.80;99.90
14119;DHT22;7138;49.246;9.100;2023-01-31T04:48:48;0.90;99.90
14119;DHT22;7138;49.246;9.100;2023-01-31T04:51:14;0.80;99.90
14119;DHT22;7138;49.246;9.100;2023-01-31T04:53:42;0.70;99.90
14119;DHT22;7138;49.246;9.100;2023-01-31T04:56:09;0.70;99.90
14119;DHT22;7138;49.246;9.100;2023-01-31T04:58:39;0.80;99.90
14119;DHT22;7138;49.246;9.100;2023-01-31T05:01:06;0.80;99.90
14119;DHT22;7138;49.246;9.100;2023-01-31T05:03:32;0.80;99.90
14119;DHT22;7138;49.246;9.100;2023-01-31T05:05:58;0.80;99.90
14119;DHT22;7138;49.246;9.100;2023-01-31T05:08:24;0.80;99.90
14119;DHT22;7138;49.246;9.100;2023-01-31T05:10:56;0.70;99.90
14119;DHT22;7138;49.246;9.100;2023-01-31T05:13:22;0.70;99.90
14119;DHT22;7138;49.246;9.100;2023-01-31T05:15:51;0.70;99.90
14119;DHT22;7138;49.246;9.100;2023-01-31T05:18:17;0.70;99.90
14119;DHT22;7138;49.246;9.100;2023-01-31T05:20:43;0.80;99.90
14119;DHT22;7138;49.246;9.100;2023-01-31T05:23:08;0.80;99.90
14119;DHT22;7138;49.246;9.100;2023-01-31T05:25:36;0.80;99.90
14119;DHT22;7138;49.246;9.100;2023-01-31T05:28:02;0.70;99.90
14119;DHT22;7138;49.246;9.100;2023-01-31T05:30:29;0.70;99.90
14119;DHT22;7138;49.246;9.100;2023-01-31T05:32:56;0.60;99.90
14119;DHT22;7138;49.246;9.100;2023-01-31T05:35:22;0.70;99.90
14119;DHT22;7138;49.246;9.100;2023-01-31T05:37:48;0.70;99.90
14119;DHT22;7138;49.246;9.100;2023-01-31T05:40:16;0.70;99.90
14119;DHT22;7138;49.246;9.100;2023-01-31T05:42:42;0.70;99.90
14119;DHT22;7138;49.246;9.100;2023-01-31T05:45:10;0.70;99.90
14119;DHT22;7138;49.246;9.100;2023-01-31T05:47:37;0.70;99.90
14119;DHT22;7138;49.246;9.100;2023-01-31T05:50:05;0.80;99.90
14119;DHT22;7138;49.246;9.100;2023-01-31T05:52:31;0.80;99.90
14119;DHT22;7138;49.246;9.100;2023-01-31T05:54:57;0.80;99.90
14119;DHT22;7138;49.246;9.100;2023-01-31T05:57:23;0.80;99.90
14119;DHT22;7138;49.246;9.100;2023-01-31T05:59:48;0.90;99.90
14119;DHT22;7138;49.246;9.100;2023-01-31T06:02:14;0.90;99.90
14119;DHT22;7138;49.246;9.100;2023-01-31T06:04:40;0.90;99.90
14119;DHT22;7138;49.246;9.100;2023-01-31T06:07:07;0.90;99.90
14119;DHT22;7138;49.246;9.100;2023-01-31T06:09:33;0.90;99.90
14119;DHT22;7138;49.246;9.100;2023-01-31T06:11:59;0.80;99.90
14119;DHT22;7138;49.246;9.100;2023-01-31T06:14:25;0.80;99.90
14119;DHT22;7138;49.246;9.100;2023-01-31T06:16:51;0.80;99.90
14119;DHT22;7138;49.246;9.100;2023-01-31T06:19:16;0.80;99.90
14119;DHT22;7138;49.246;9.100;2023-01-31T06:21:42;0.80;99.90
14119;DHT22;7138;49.246;9.100;2023-01-31T06:24:09;0.80;99.90
14119;DHT22;7138;49.246;9.100;2023-01-31T06:26:35;0.90;99.90
14119;DHT22;7138;49.246;9.100;2023-01-31T06:29:01;0.80;99.90
14119;DHT22;7138;49.246;9.100;2023-01-31T06:31:27;0.80;99.90
14119;DHT22;7138;49.246;9.100;2023-01-31T06:33:53;0.80;99.90
14119;DHT22;7138;49.246;9.100;2023-01-31T06:36:19;0.80;99.90
14119;DHT22;7138;49.246;9.100;2023-01-31T06:38:48;0.80;99.90
14119;DHT22;7138;49.246;9.100;2023-01-31T06:41:16;0.80;99.90
14119;DHT22;7138;49.246;9.100;2023-01-31T06:43:42;0.80;99.90
14119;DHT22;7138;49.246;9.100;2023-01-31T06:46:08;0.80;99.90
14119;DHT22;7138;49.246;9.100;2023-01-31T06:48:34;0.80;99.90
14119;DHT22;7138;49.246;9.100;2023-01-31T06:51:00;0.80;99.90
14119;DHT22;7138;49.246;9.100;2023-01-31T06:53:26;0.70;99.90
14119;DHT22;7138;49.246;9.100;2023-01-31T06:55:52;0.80;99.90
14119;DHT22;7138;49.246;9.100;2023-01-31T06:58:19;0.70;99.90
14119;DHT22;7138;49.246;9.100;2023-01-31T07:00:45;0.80;99.90
14119;DHT22;7138;49.246;9.100;2023-01-31T07:03:11;0.80;99.90
14119;DHT22;7138;49.246;9.100;2023-01-31T07:05:37;0.70;99.90
14119;DHT22;7138;49.246;9.100;2023-01-31T07:08:04;0.80;99.90
14119;DHT22;7138;49.246;9.100;2023-01-31T07:10:30;0.80;99.90
14119;DHT22;7138;49.246;9.100;2023-01-31T07:12:55;0.80;99.90
14119;DHT22;7138;49.246;9.100;2023-01-31T07:15:23;0.80;99.90
14119;DHT22;7138;49.246;9.100;2023-01-31T07:17:48;0.90;99.90
14119;DHT22;7138;49.246;9.100;2023-01-31T07:20:14;0.90;99.90
14119;DHT22;7138;49.246;9.100;2023-01-31T07:22:41;0.90;99.90
14119;DHT22;7138;49.246;9.100;2023-01-31T07:25:07;1.00;99.90
14119;DHT22;7138;49.246;9.100;2023-01-31T07:27:33;1.00;99.90
14119;DHT22;7138;49.246;9.100;2023-01-31T07:29:59;1.00;99.90
14119;DHT22;7138;49.246;9.100;2023-01-31T07:32:28;1.00;99.90
14119;DHT22;7138;49.246;9.100;2023-01-31T07:34:55;1.00;99.90
14119;DHT22;7138;49.246;9.100;2023-01-31T07:37:21;1.10;99.90
14119;DHT22;7138;49.246;9.100;2023-01-31T07:39:46;1.10;99.90
14119;DHT22;7138;49.246;9.100;2023-01-31T07:42:12;1.00;99.90
14119;DHT22;7138;49.246;9.100;2023-01-31T07:44:38;1.00;99.90
14119;DHT22;7138;49.246;9.100;2023-01-31T07:47:04;1.00;99.90
14119;DHT22;7138;49.246;9.100;2023-01-31T07:49:31;1.10;99.90
14119;DHT22;7138;49.246;9.100;2023-01-31T07:51:57;1.10;99.90
14119;DHT22;7138;49.246;9.100;2023-01-31T07:54:23;1.10;99.90
14119;DHT22;7138;49.246;9.100;2023-01-31T07:56:49;1.10;99.90
14119;DHT22;7138;49.246;9.100;2023-01-31T07:59:15;1.10;99.90
14119;DHT22;7138;49.246;9.100;2023-01-31T08:01:42;1.20;99.90
14119;DHT22;7138;49.246;9.100;2023-01-31T08:04:26;1.10;99.90
14119;DHT22;7138;49.246;9.100;2023-01-31T08:06:54;1.10;99.90
14119;DHT22;7138;49.246;9.100;2023-01-31T08:09:21;1.10;99.90
14119;DHT22;7138;49.246;9.100;2023-01-31T08:11:47;1.10;99.90
14119;DHT22;7138;49.246;9.100;2023-01-31T08:14:13;1.00;99.90
14119;DHT22;7138;49.246;9.100;2023-01-31T08:16:39;1.00;99.90
14119;DHT22;7138;49.246;9.100;2023-01-31T08:19:05;1.10;99.90
14119;DHT22;7138;49.246;9.100;2023-01-31T08:21:31;1.10;99.90
14119;DHT22;7138;49.246;9.100;2023-01-31T08:23:58;1.10;99.90
14119;DHT22;7138;49.246;9.100;2023-01-31T08:26:24;1.10;99.90
14119;DHT22;7138;49.246;9.100;2023-01-31T08:28:51;1.10;99.90
14119;DHT22;7138;49.246;9.100;2023-01-31T08:31:20;1.10;99.90
14119;DHT22;7138;49.246;9.100;2023-01-31T08:33:47;1.20;99.90
14119;DHT22;7138;49.246;9.100;2023-01-31T08:36:17;1.20;99.90
14119;DHT22;7138;49.246;9.100;2023-01-31T08:38:45;1.30;99.90
14119;DHT22;7138;49.246;9.100;2023-01-31T08:41:13;1.30;99.90
14119;DHT22;7138;49.246;9.100;2023-01-31T08:43:42;1.40;99.90
14119;DHT22;7138;49.246;9.100;2023-01-31T08:46:08;1.50;99.90
14119;DHT22;7138;49.246;9.100;2023-01-31T08:48:37;1.60;99.90
14119;DHT22;7138;49.246;9.100;2023-01-31T08:51:05;1.70;99.90
14119;DHT22;7138;49.246;9.100;2023-01-31T08:53:32;1.70;99.90
14119;DHT22;7138;49.246;9.100;2023-01-31T08:55:59;1.70;99.90
14119;DHT22;7138;49.246;9.100;2023-01-31T08:58:29;1.80;99.90
14119;DHT22;7138;49.246;9.100;2023-01-31T09:01:00;1.90;99.90
14119;DHT22;7138;49.246;9.100;2023-01-31T09:03:26;2.00;99.90
14119;DHT22;7138;49.246;9.100;2023-01-31T09:05:53;2.00;99.90
14119;DHT22;7138;49.246;9.100;2023-01-31T09:08:18;2.10;99.90
14119;DHT22;7138;49.246;9.100;2023-01-31T09:10:49;2.10;99.90
14119;DHT22;7138;49.246;9.100;2023-01-31T09:13:16;2.10;99.90
14119;DHT22;7138;49.246;9.100;2023-01-31T09:15:43;2.00;99.90
14119;DHT22;7138;49.246;9.100;2023-01-31T09:18:09;2.10;99.90
14119;DHT22;7138;49.246;9.100;2023-01-31T09:20:35;2.10;99.90
14119;DHT22;7138;49.246;9.100;2023-01-31T09:23:01;2.10;99.90
14119;DHT22;7138;49.246;9.100;2023-01-31T09:25:26;2.20;99.90
14119;DHT22;7138;49.246;9.100;2023-01-31T09:27:53;2.20;99.90
14119;DHT22;7138;49.246;9.100;2023-01-31T09:30:19;2.20;99.90
14119;DHT22;7138;49.246;9.100;2023-01-31T09:32:46;2.10;99.90
14119;DHT22;7138;49.246;9.100;2023-01-31T09:35:14;2.20;99.90
14119;DHT22;7138;49.246;9.100;2023-01-31T09:37:41;2.10;99.90
14119;DHT22;7138;49.246;9.100;2023-01-31T09:40:09;2.20;99.90
14119;DHT22;7138;49.246;9.100;2023-01-31T09:42:47;2.20;99.90
14119;DHT22;7138;49.246;9.100;2023-01-31T09:45:20;2.20;99.90
14119;DHT22;7138;49.246;9.100;2023-01-31T09:47:57;2.30;99.90
14119;DHT22;7138;49.246;9.100;2023-01-31T09:50:30;2.30;99.90
14119;DHT22;7138;49.246;9.100;2023-01-31T09:53:00;2.30;99.90
14119;DHT22;7138;49.246;9.100;2023-01-31T09:55:34;2.30;99.90
14119;DHT22;7138;49.246;9.100;2023-01-31T09:58:11;2.30;99.90
14119;DHT22;7138;49.246;9.100;2023-01-31T10:00:51;2.30;99.90
14119;DHT22;7138;49.246;9.100;2023-01-31T10:03:49;2.30;99.90
14119;DHT22;7138;49.246;9.100;2023-01-31T10:06:40;2.30;99.90
14119;DHT22;7138;49.246;9.100;2023-01-31T10:09:22;2.30;99.90
14119;DHT22;7138;49.246;9.100;2023-01-31T10:11:56;2.20;99.90
14119;DHT22;7138;49.246;9.100;2023-01-31T10:14:31;2.30;99.90
14119;DHT22;7138;49.246;9.100;2023-01-31T10:17:08;2.30;99.90
14119;DHT22;7138;49.246;9.100;2023-01-31T10:19:44;2.20;99.90
14119;DHT22;7138;49.246;9.100;2023-01-31T10:22:19;2.20;99.90
14119;DHT22;7138;49.246;9.100;2023-01-31T10:24:54;2.30;99.90
14119;DHT22;7138;49.246;9.100;2023-01-31T10:27:38;2.30;99.90
14119;DHT22;7138;49.246;9.100;2023-01-31T10:30:15;2.30;99.90
14119;DHT22;7138;49.246;9.100;2023-01-31T10:32:46;2.40;99.90
14119;DHT22;7138;49.246;9.100;2023-01-31T10:35:24;2.40;99.90
14119;DHT22;7138;49.246;9.100;2023-01-31T10:37:54;2.50;99.90
14119;DHT22;7138;49.246;9.100;2023-01-31T10:40:31;2.40;99.90
14119;DHT22;7138;49.246;9.100;2023-01-31T10:43:10;2.40;99.90
14119;DHT22;7138;49.246;9.100;2023-01-31T10:45:40;2.30;99.90
14119;DHT22;7138;49.246;9.100;2023-01-31T10:48:13;2.30;99.90
14119;DHT22;7138;49.246;9.100;2023-01-31T10:50:51;2.20;99.90
14119;DHT22;7138;49.246;9.100;2023-01-31T10:53:38;2.20;99.90
14119;DHT22;7138;49.246;9.100;2023-01-31T10:56:21;2.30;99.90
14119;DHT22;7138;49.246;9.100;2023-01-31T10:58:53;2.50;99.90
14119;DHT22;7138;49.246;9.100;2023-01-31T11:01:21;2.60;99.90
14119;DHT22;7138;49.246;9.100;2023-01-31T11:03:49;2.60;99.90
14119;DHT22;7138;49.246;9.100;2023-01-31T11:06:19;2.70;99.90
14119;DHT22;7138;49.246;9.100;2023-01-31T11:08:47;2.70;99.90
14119;DHT22;7138;49.246;9.100;2023-01-31T11:11:17;2.70;99.90
14119;DHT22;7138;49.246;9.100;2023-01-31T11:13:55;2.70;99.90
14119;DHT22;7138;49.246;9.100;2023-01-31T11:16:24;2.80;99.90
14119;DHT22;7138;49.246;9.100;2023-01-31T11:18:52;2.80;99.90
14119;DHT22;7138;49.246;9.100;2023-01-31T11:21:22;3.00;99.90
14119;DHT22;7138;49.246;9.100;2023-01-31T11:23:50;3.00;99.90
14119;DHT22;7138;49.246;9.100;2023-01-31T11:26:27;3.00;99.90
14119;DHT22;7138;49.246;9.100;2023-01-31T11:28:55;3.00;99.90
14119;DHT22;7138;49.246;9.100;2023-01-31T11:31:27;3.00;99.90
14119;DHT22;7138;49.246;9.100;2023-01-31T11:33:57;3.10;99.90
14119;DHT22;7138;49.246;9.100;2023-01-31T11:36:30;3.10;99.90
14119;DHT22;7138;49.246;9.100;2023-01-31T11:38:57;3.20;99.90
14119;DHT22;7138;49.246;9.100;2023-01-31T11:41:30;3.20;99.90
14119;DHT22;7138;49.246;9.100;2023-01-31T11:44:12;3.30;99.90
14119;DHT22;7138;49.246;9.100;2023-01-31T11:46:52;3.40;99.90
14119;DHT22;7138;49.246;9.100;2023-01-31T11:49:26;3.60;99.90
14119;DHT22;7138;49.246;9.100;2023-01-31T11:51:57;3.60;99.90
14119;DHT22;7138;49.246;9.100;2023-01-31T11:54:28;3.70;99.90
14119;DHT22;7138;49.246;9.100;2023-01-31T11:56:57;3.90;99.90
14119;DHT22;7138;49.246;9.100;2023-01-31T11:59:27;4.20;99.90
14119;DHT22;7138;49.246;9.100;2023-01-31T12:01:56;4.40;99.90
14119;DHT22;7138;49.246;9.100;2023-01-31T12:04:29;4.60;99.90
14119;DHT22;7138;49.246;9.100;2023-01-31T12:07:02;4.30;99.90
14119;DHT22;7138;49.246;9.100;2023-01-31T12:09:40;4.20;99.90
14119;DHT22;7138;49.246;9.100;2023-01-31T12:12:22;4.20;99.90
14119;DHT22;7138;49.246;9.100;2023-01-31T12:14:55;4.10;99.90
14119;DHT22;7138;49.246;9.100;2023-01-31T12:17:24;3.90;99.90
14119;DHT22;7138;49.246;9.100;2023-01-31T12:20:09;3.90;99.90
14119;DHT22;7138;49.246;9.100;2023-01-31T12:22:48;3.90;99.90
14119;DHT22;7138;49.246;9.100;2023-01-31T12:25:27;4.00;99.90
14119;DHT22;7138;49.246;9.100;2023-01-31T12:28:12;4.00;99.90
14119;DHT22;7138;49.246;9.100;2023-01-31T12:31:04;3.90;99.90
14119;DHT22;7138;49.246;9.100;2023-01-31T12:33:57;3.90;99.90
14119;DHT22;7138;49.246;9.100;2023-01-31T12:36:42;4.00;99.90
14119;DHT22;7138;49.246;9.100;2023-01-31T12:39:35;4.00;99.90
14119;DHT22;7138;49.246;9.100;2023-01-31T12:42:24;4.00;99.90
14119;DHT22;7138;49.246;9.100;2023-01-31T12:45:08;3.90;99.90
14119;DHT22;7138;49.246;9.100;2023-01-31T12:48:08;3.90;99.90
14119;DHT22;7138;49.246;9.100;2023-01-31T12:51:01;3.80;99.90
14119;DHT22;7138;49.246;9.100;2023-01-31T12:53:47;3.80;99.90
14119;DHT22;7138;49.246;9.100;2023-01-31T12:56:32;3.80;99.90
14119;DHT22;7138;49.246;9.100;2023-01-31T12:59:22;3.90;99.90
14119;DHT22;7138;49.246;9.100;2023-01-31T13:02:14;3.90;99.90
14119;DHT22;7138;49.246;9.100;2023-01-31T13:04:56;3.90;99.90
14119;DHT22;7138;49.246;9.100;2023-01-31T13:07:29;4.00;99.90
14119;DHT22;7138;49.246;9.100;2023-01-31T13:10:03;4.00;99.90
14119;DHT22;7138;49.246;9.100;2023-01-31T13:12:43;3.90;99.90
14119;DHT22;7138;49.246;9.100;2023-01-31T13:15:25;3.90;99.90
14119;DHT22;7138;49.246;9.100;2023-01-31T13:17:59;3.80;99.90
14119;DHT22;7138;49.246;9.100;2023-01-31T13:20:33;3.80;99.90
14119;DHT22;7138;49.246;9.100;2023-01-31T13:23:09;3.80;99.90
14119;DHT22;7138;49.246;9.100;2023-01-31T13:25:43;3.80;99.90
14119;DHT22;7138;49.246;9.100;2023-01-31T13:28:18;3.80;99.90
14119;DHT22;7138;49.246;9.100;2023-01-31T13:30:52;3.90;99.90
14119;DHT22;7138;49.246;9.100;2023-01-31T13:33:29;3.90;99.90
14119;DHT22;7138;49.246;9.100;2023-01-31T13:36:07;3.90;99.90
14119;DHT22;7138;49.246;9.100;2023-01-31T13:38:43;4.00;99.90
14119;DHT22;7138;49.246;9.100;2023-01-31T13:41:18;4.10;99.90
14119;DHT22;7138;49.246;9.100;2023-01-31T13:43:51;4.10;99.90
14119;DHT22;7138;49.246;9.100;2023-01-31T13:46:20;4.10;99.90
14119;DHT22;7138;49.246;9.100;2023-01-31T13:48:54;4.10;99.90
14119;DHT22;7138;49.246;9.100;2023-01-31T13:51:27;4.20;99.90
14119;DHT22;7138;49.246;9.100;2023-01-31T13:54:02;4.10;99.90
14119;DHT22;7138;49.246;9.100;2023-01-31T13:56:38;4.10;99.90
14119;DHT22;7138;49.246;9.100;2023-01-31T13:59:08;4.20;99.90
14119;DHT22;7138;49.246;9.100;2023-01-31T14:01:42;4.10;99.90
14119;DHT22;7138;49.246;9.100;2023-01-31T14:04:30;4.10;99.90
14119;DHT22;7138;49.246;9.100;2023-01-31T14:07:22;4.20;99.90
14119;DHT22;7138;49.246;9.100;2023-01-31T14:10:27;4.30;99.90
14119;DHT22;7138;49.246;9.100;2023-01-31T14:16:34;4.20;99.90
14119;DHT22;7138;49.246;9.100;2023-01-31T14:22:22;4.10;99.90
14119;DHT22;7138;49.246;9.100;2023-01-31T14:24:55;4.10;99.90
14119;DHT22;7138;49.246;9.100;2023-01-31T14:27:26;4.00;99.90
14119;DHT22;7138;49.246;9.100;2023-01-31T14:30:01;4.00;99.90
14119;DHT22;7138;49.246;9.100;2023-01-31T14:32:47;4.00;99.90
14119;DHT22;7138;49.246;9.100;2023-01-31T14:35:33;4.00;99.90
14119;DHT22;7138;49.246;9.100;2023-01-31T14:38:18;4.00;99.90
14119;DHT22;7138;49.246;9.100;2023-01-31T14:41:00;4.00;99.90
14119;DHT22;7138;49.246;9.100;2023-01-31T14:43:44;3.90;99.90
14119;DHT22;7138;49.246;9.100;2023-01-31T14:46:45;3.90;99.90
14119;DHT22;7138;49.246;9.100;2023-01-31T14:49:48;3.90;99.90
14119;DHT22;7138;49.246;9.100;2023-01-31T14:52:40;3.90;99.90
14119;DHT22;7138;49.246;9.100;2023-01-31T14:55:31;3.90;99.90
14119;DHT22;7138;49.246;9.100;2023-01-31T14:58:12;4.00;99.90
14119;DHT22;7138;49.246;9.100;2023-01-31T15:00:47;3.90;99.90
14119;DHT22;7138;49.246;9.100;2023-01-31T15:03:18;3.90;99.90
14119;DHT22;7138;49.246;9.100;2023-01-31T15:05:50;3.90;99.90
14119;DHT22;7138;49.246;9.100;2023-01-31T15:08:39;3.90;99.90
14119;DHT22;7138;49.246;9.100;2023-01-31T15:11:12;3.90;99.90
14119;DHT22;7138;49.246;9.100;2023-01-31T15:13:59;3.90;99.90
14119;DHT22;7138;49.246;9.100;2023-01-31T15:16:28;3.90;99.90
14119;DHT22;7138;49.246;9.100;2023-01-31T15:19:00;3.90;99.90
14119;DHT22;7138;49.246;9.100;2023-01-31T15:21:37;3.80;99.90
14119;DHT22;7138;49.246;9.100;2023-01-31T15:24:15;3.80;99.90
14119;DHT22;7138;49.246;9.100;2023-01-31T15:26:44;3.70;99.90
14119;DHT22;7138;49.246;9.100;2023-01-31T15:29:15;3.70;99.90
14119;DHT22;7138;49.246;9.100;2023-01-31T15:31:45;3.60;99.90
14119;DHT22;7138;49.246;9.100;2023-01-31T15:34:18;3.70;99.90
14119;DHT22;7138;49.246;9.100;2023-01-31T15:36:58;3.60;99.90
14119;DHT22;7138;49.246;9.100;2023-01-31T15:39:33;3.60;99.90
14119;DHT22;7138;49.246;9.100;2023-01-31T15:42:20;3.60;99.90
14119;DHT22;7138;49.246;9.100;2023-01-31T15:44:49;3.60;99.90
14119;DHT22;7138;49.246;9.100;2023-01-31T15:47:20;3.50;99.90
14119;DHT22;7138;49.246;9.100;2023-01-31T15:49:47;3.50;99.90
14119;DHT22;7138;49.246;9.100;2023-01-31T15:52:16;3.50;99.90
14119;DHT22;7138;49.246;9.100;2023-01-31T15:54:51;3.50;99.90
14119;DHT22;7138;49.246;9.100;2023-01-31T15:57:21;3.50;99.90
14119;DHT22;7138;49.246;9.100;2023-01-31T15:59:48;3.40;99.90
14119;DHT22;7138;49.246;9.100;2023-01-31T16:02:21;3.40;99.90
14119;DHT22;7138;49.246;9.100;2023-01-31T16:04:51;3.40;99.90
14119;DHT22;7138;49.246;9.100;2023-01-31T16:07:20;3.40;99.90
14119;DHT22;7138;49.246;9.100;2023-01-31T16:09:54;3.40;99.90
14119;DHT22;7138;49.246;9.100;2023-01-31T16:12:22;3.40;99.90
14119;DHT22;7138;49.246;9.100;2023-01-31T16:14:50;3.30;99.90
14119;DHT22;7138;49.246;9.100;2023-01-31T16:17:23;3.40;99.90
14119;DHT22;7138;49.246;9.100;2023-01-31T16:19:50;3.40;99.90
14119;DHT22;7138;49.246;9.100;2023-01-31T16:22:24;3.40;99.90
14119;DHT22;7138;49.246;9.100;2023-01-31T16:24:52;3.40;99.90
14119;DHT22;7138;49.246;9.100;2023-01-31T16:27:19;3.40;99.90
14119;DHT22;7138;49.246;9.100;2023-01-31T16:29:48;3.40;99.90
14119;DHT22;7138;49.246;9.100;2023-01-31T16:32:20;3.40;99.90
14119;DHT22;7138;49.246;9.100;2023-01-31T16:34:53;3.40;99.90
14119;DHT22;7138;49.246;9.100;2023-01-31T16:37:31;3.40;99.90
14119;DHT22;7138;49.246;9.100;2023-01-31T16:40:02;3.30;99.90
14119;DHT22;7138;49.246;9.100;2023-01-31T16:42:30;3.30;99.90